sensor_id;sensor_type;location;lat;lon;timestamp;P1;durP1;ratioP1;P2;durP2;ratioP2
85799;SDS011;76245;47.062;15.440;2024-03-02T00:00:07;61.25;;;30.10;;
85799;SDS011;76245;47.062;15.440;2024-03-02T00:05:13;62.72;;;29.05;;
85799;SDS011;76245;47.062;15.440;2024-03-02T00:07:41;58.10;;;30.30;;
85799;SDS011;76245;47.062;15.440;2024-03-02T00:10:10;60.88;;;28.67;;
85799;SDS011;76245;47.062;15.440;2024-03-02T00:12:40;58.13;;;27.65;;
85799;SDS011;76245;47.062;15.440;2024-03-02T00:15:32;60.45;;;26.58;;
85799;SDS011;76245;47.062;15.440;2024-03-02T00:18:11;58.33;;;27.13;;
85799;SDS011;76245;47.062;15.440;2024-03-02T00:20:38;56.03;;;27.63;;
85799;SDS011;76245;47.062;15.440;2024-03-02T00:23:04;59.85;;;29.15;;
85799;SDS011;76245;47.062;15.440;2024-03-02T00:25:41;57.50;;;30.25;;
85799;SDS011;76245;47.062;15.440;2024-03-02T00:31:06;56.70;;;27.77;;
85799;SDS011;76245;47.062;15.440;2024-03-02T00:36:02;57.30;;;27.92;;
85799;SDS011;76245;47.062;15.440;2024-03-02T00:38:29;54.40;;;27.20;;
85799;SDS011;76245;47.062;15.440;2024-03-02T00:40:55;61.55;;;29.08;;
85799;SDS011;76245;47.062;15.440;2024-03-02T00:45:56;55.97;;;28.30;;
85799;SDS011;76245;47.062;15.440;2024-03-02T00:48:22;59.33;;;28.23;;
85799;SDS011;76245;47.062;15.440;2024-03-02T00:50:50;57.03;;;26.30;;
85799;SDS011;76245;47.062;15.440;2024-03-02T00:53:17;55.72;;;27.23;;
85799;SDS011;76245;47.062;15.440;2024-03-02T00:55:46;58.83;;;27.95;;
85799;SDS011;76245;47.062;15.440;2024-03-02T00:58:13;61.40;;;28.10;;
85799;SDS011;76245;47.062;15.440;2024-03-02T01:00:38;56.40;;;28.90;;
85799;SDS011;76245;47.062;15.440;2024-03-02T01:03:04;58.45;;;28.00;;
85799;SDS011;76245;47.062;15.440;2024-03-02T01:05:29;58.95;;;30.05;;
85799;SDS011;76245;47.062;15.440;2024-03-02T01:07:54;60.97;;;30.05;;
85799;SDS011;76245;47.062;15.440;2024-03-02T01:10:20;62.13;;;30.13;;
85799;SDS011;76245;47.062;15.440;2024-03-02T01:12:45;58.10;;;27.83;;
85799;SDS011;76245;47.062;15.440;2024-03-02T01:15:11;60.20;;;28.83;;
85799;SDS011;76245;47.062;15.440;2024-03-02T01:17:37;60.15;;;28.98;;
85799;SDS011;76245;47.062;15.440;2024-03-02T01:20:02;55.78;;;28.58;;
85799;SDS011;76245;47.062;15.440;2024-03-02T01:22:29;54.38;;;28.52;;
85799;SDS011;76245;47.062;15.440;2024-03-02T01:24:55;58.60;;;27.48;;
85799;SDS011;76245;47.062;15.440;2024-03-02T01:27:20;53.50;;;25.85;;
85799;SDS011;76245;47.062;15.440;2024-03-02T01:29:46;57.83;;;29.73;;
85799;SDS011;76245;47.062;15.440;2024-03-02T01:32:11;55.97;;;26.10;;
85799;SDS011;76245;47.062;15.440;2024-03-02T01:34:36;55.45;;;25.90;;
85799;SDS011;76245;47.062;15.440;2024-03-02T01:37:02;57.00;;;26.70;;
85799;SDS011;76245;47.062;15.440;2024-03-02T01:39:28;55.90;;;26.27;;
85799;SDS011;76245;47.062;15.440;2024-03-02T01:41:53;54.28;;;26.42;;
85799;SDS011;76245;47.062;15.440;2024-03-02T01:44:19;57.75;;;27.45;;
85799;SDS011;76245;47.062;15.440;2024-03-02T01:46:44;60.38;;;27.05;;
85799;SDS011;76245;47.062;15.440;2024-03-02T01:49:09;56.08;;;26.30;;
85799;SDS011;76245;47.062;15.440;2024-03-02T01:51:35;54.92;;;28.05;;
85799;SDS011;76245;47.062;15.440;2024-03-02T01:54:00;55.25;;;26.88;;
85799;SDS011;76245;47.062;15.440;2024-03-02T01:56:26;51.17;;;25.45;;
85799;SDS011;76245;47.062;15.440;2024-03-02T01:58:51;55.35;;;25.80;;
85799;SDS011;76245;47.062;15.440;2024-03-02T02:01:17;54.97;;;25.70;;
85799;SDS011;76245;47.062;15.440;2024-03-02T02:03:43;50.70;;;26.15;;
85799;SDS011;76245;47.062;15.440;2024-03-02T02:06:09;51.38;;;24.35;;
85799;SDS011;76245;47.062;15.440;2024-03-02T02:08:36;56.22;;;26.90;;
85799;SDS011;76245;47.062;15.440;2024-03-02T02:11:02;59.85;;;28.05;;
85799;SDS011;76245;47.062;15.440;2024-03-02T02:13:27;58.55;;;28.88;;
85799;SDS011;76245;47.062;15.440;2024-03-02T02:15:53;57.63;;;26.40;;
85799;SDS011;76245;47.062;15.440;2024-03-02T02:18:18;58.40;;;26.08;;
85799;SDS011;76245;47.062;15.440;2024-03-02T02:20:44;53.00;;;26.13;;
85799;SDS011;76245;47.062;15.440;2024-03-02T02:23:09;56.78;;;28.20;;
85799;SDS011;76245;47.062;15.440;2024-03-02T02:25:35;52.83;;;24.13;;
85799;SDS011;76245;47.062;15.440;2024-03-02T02:28:00;49.88;;;23.30;;
85799;SDS011;76245;47.062;15.440;2024-03-02T02:30:30;46.55;;;22.60;;
85799;SDS011;76245;47.062;15.440;2024-03-02T02:32:57;49.63;;;23.58;;
85799;SDS011;76245;47.062;15.440;2024-03-02T02:35:23;54.15;;;24.20;;
85799;SDS011;76245;47.062;15.440;2024-03-02T02:37:52;53.50;;;24.05;;
85799;SDS011;76245;47.062;15.440;2024-03-02T02:40:18;52.85;;;24.25;;
85799;SDS011;76245;47.062;15.440;2024-03-02T02:42:44;52.97;;;22.20;;
85799;SDS011;76245;47.062;15.440;2024-03-02T02:45:09;52.20;;;22.38;;
85799;SDS011;76245;47.062;15.440;2024-03-02T02:47:36;49.35;;;23.48;;
85799;SDS011;76245;47.062;15.440;2024-03-02T02:50:06;53.65;;;22.80;;
85799;SDS011;76245;47.062;15.440;2024-03-02T02:52:34;51.28;;;23.58;;
85799;SDS011;76245;47.062;15.440;2024-03-02T02:55:02;49.97;;;22.95;;
85799;SDS011;76245;47.062;15.440;2024-03-02T02:57:28;54.90;;;24.95;;
85799;SDS011;76245;47.062;15.440;2024-03-02T02:59:55;54.60;;;23.25;;
85799;SDS011;76245;47.062;15.440;2024-03-02T03:02:21;52.08;;;23.10;;
85799;SDS011;76245;47.062;15.440;2024-03-02T03:04:46;55.35;;;24.05;;
85799;SDS011;76245;47.062;15.440;2024-03-02T03:07:12;47.90;;;24.23;;
85799;SDS011;76245;47.062;15.440;2024-03-02T03:09:37;50.40;;;23.13;;
85799;SDS011;76245;47.062;15.440;2024-03-02T03:12:03;44.75;;;23.00;;
85799;SDS011;76245;47.062;15.440;2024-03-02T03:14:29;49.10;;;22.25;;
85799;SDS011;76245;47.062;15.440;2024-03-02T03:16:54;52.28;;;23.30;;
85799;SDS011;76245;47.062;15.440;2024-03-02T03:19:20;53.75;;;24.15;;
85799;SDS011;76245;47.062;15.440;2024-03-02T03:21:45;50.15;;;23.60;;
85799;SDS011;76245;47.062;15.440;2024-03-02T03:24:11;46.58;;;22.95;;
85799;SDS011;76245;47.062;15.440;2024-03-02T03:26:36;48.63;;;22.55;;
85799;SDS011;76245;47.062;15.440;2024-03-02T03:29:02;43.45;;;20.45;;
85799;SDS011;76245;47.062;15.440;2024-03-02T03:31:27;40.50;;;20.48;;
85799;SDS011;76245;47.062;15.440;2024-03-02T03:33:54;42.58;;;20.20;;
85799;SDS011;76245;47.062;15.440;2024-03-02T03:36:19;42.05;;;20.98;;
85799;SDS011;76245;47.062;15.440;2024-03-02T03:38:44;39.60;;;19.60;;
85799;SDS011;76245;47.062;15.440;2024-03-02T03:41:10;43.65;;;19.50;;
85799;SDS011;76245;47.062;15.440;2024-03-02T03:43:35;38.80;;;19.17;;
85799;SDS011;76245;47.062;15.440;2024-03-02T03:46:01;42.03;;;20.13;;
85799;SDS011;76245;47.062;15.440;2024-03-02T03:48:27;40.28;;;19.30;;
85799;SDS011;76245;47.062;15.440;2024-03-02T03:50:55;44.45;;;21.02;;
85799;SDS011;76245;47.062;15.440;2024-03-02T03:53:21;44.10;;;21.10;;
85799;SDS011;76245;47.062;15.440;2024-03-02T03:55:47;47.55;;;22.80;;
85799;SDS011;76245;47.062;15.440;2024-03-02T03:58:14;48.83;;;23.60;;
85799;SDS011;76245;47.062;15.440;2024-03-02T04:00:41;47.50;;;23.25;;
85799;SDS011;76245;47.062;15.440;2024-03-02T04:03:07;49.22;;;23.98;;
85799;SDS011;76245;47.062;15.440;2024-03-02T04:05:32;47.33;;;22.42;;
85799;SDS011;76245;47.062;15.440;2024-03-02T04:07:58;49.08;;;23.15;;
85799;SDS011;76245;47.062;15.440;2024-03-02T04:10:23;46.85;;;21.92;;
85799;SDS011;76245;47.062;15.440;2024-03-02T04:12:49;51.47;;;22.27;;
85799;SDS011;76245;47.062;15.440;2024-03-02T04:15:15;46.13;;;21.77;;
85799;SDS011;76245;47.062;15.440;2024-03-02T04:17:41;47.92;;;22.02;;
85799;SDS011;76245;47.062;15.440;2024-03-02T04:20:06;43.63;;;22.13;;
85799;SDS011;76245;47.062;15.440;2024-03-02T04:22:32;45.17;;;23.25;;
85799;SDS011;76245;47.062;15.440;2024-03-02T04:24:59;45.42;;;22.45;;
85799;SDS011;76245;47.062;15.440;2024-03-02T04:27:24;46.15;;;22.15;;
85799;SDS011;76245;47.062;15.440;2024-03-02T04:29:51;44.28;;;20.25;;
85799;SDS011;76245;47.062;15.440;2024-03-02T04:32:16;40.55;;;20.80;;
85799;SDS011;76245;47.062;15.440;2024-03-02T04:34:42;43.47;;;20.73;;
85799;SDS011;76245;47.062;15.440;2024-03-02T04:37:08;44.53;;;20.73;;
85799;SDS011;76245;47.062;15.440;2024-03-02T04:39:34;44.58;;;21.95;;
85799;SDS011;76245;47.062;15.440;2024-03-02T04:42:00;42.25;;;19.55;;
85799;SDS011;76245;47.062;15.440;2024-03-02T04:44:26;42.78;;;20.27;;
85799;SDS011;76245;47.062;15.440;2024-03-02T04:46:51;43.47;;;20.65;;
85799;SDS011;76245;47.062;15.440;2024-03-02T04:49:17;42.72;;;21.10;;
85799;SDS011;76245;47.062;15.440;2024-03-02T04:51:42;44.63;;;20.50;;
85799;SDS011;76245;47.062;15.440;2024-03-02T04:54:07;38.80;;;19.50;;
85799;SDS011;76245;47.062;15.440;2024-03-02T04:56:33;45.22;;;20.80;;
85799;SDS011;76245;47.062;15.440;2024-03-02T04:59:01;41.78;;;20.67;;
85799;SDS011;76245;47.062;15.440;2024-03-02T05:01:29;45.35;;;20.48;;
85799;SDS011;76245;47.062;15.440;2024-03-02T05:03:55;41.65;;;19.83;;
85799;SDS011;76245;47.062;15.440;2024-03-02T05:06:21;39.20;;;19.45;;
85799;SDS011;76245;47.062;15.440;2024-03-02T05:08:47;45.72;;;21.25;;
85799;SDS011;76245;47.062;15.440;2024-03-02T05:11:13;41.75;;;19.77;;
85799;SDS011;76245;47.062;15.440;2024-03-02T05:14:15;41.60;;;18.67;;
85799;SDS011;76245;47.062;15.440;2024-03-02T05:16:41;41.13;;;19.73;;
85799;SDS011;76245;47.062;15.440;2024-03-02T05:19:06;40.28;;;18.27;;
85799;SDS011;76245;47.062;15.440;2024-03-02T05:21:32;42.72;;;18.23;;
85799;SDS011;76245;47.062;15.440;2024-03-02T05:23:59;40.58;;;19.85;;
85799;SDS011;76245;47.062;15.440;2024-03-02T05:26:24;40.20;;;18.02;;
85799;SDS011;76245;47.062;15.440;2024-03-02T05:28:50;43.25;;;18.83;;
85799;SDS011;76245;47.062;15.440;2024-03-02T05:31:15;44.40;;;19.92;;
85799;SDS011;76245;47.062;15.440;2024-03-02T05:33:41;42.20;;;19.40;;
85799;SDS011;76245;47.062;15.440;2024-03-02T05:36:07;43.42;;;19.20;;
85799;SDS011;76245;47.062;15.440;2024-03-02T05:38:36;41.55;;;19.48;;
85799;SDS011;76245;47.062;15.440;2024-03-02T05:41:02;45.97;;;19.30;;
85799;SDS011;76245;47.062;15.440;2024-03-02T05:43:27;38.13;;;17.65;;
85799;SDS011;76245;47.062;15.440;2024-03-02T05:45:54;38.05;;;18.98;;
85799;SDS011;76245;47.062;15.440;2024-03-02T05:48:19;44.47;;;19.42;;
85799;SDS011;76245;47.062;15.440;2024-03-02T05:50:45;40.92;;;18.10;;
85799;SDS011;76245;47.062;15.440;2024-03-02T05:53:10;43.33;;;19.35;;
85799;SDS011;76245;47.062;15.440;2024-03-02T05:55:35;43.00;;;18.65;;
85799;SDS011;76245;47.062;15.440;2024-03-02T05:58:01;37.28;;;18.05;;
85799;SDS011;76245;47.062;15.440;2024-03-02T06:00:32;37.38;;;18.48;;
85799;SDS011;76245;47.062;15.440;2024-03-02T06:02:58;36.60;;;17.75;;
85799;SDS011;76245;47.062;15.440;2024-03-02T06:05:23;34.88;;;17.05;;
85799;SDS011;76245;47.062;15.440;2024-03-02T06:07:49;37.45;;;17.30;;
85799;SDS011;76245;47.062;15.440;2024-03-02T06:10:15;38.65;;;18.40;;
85799;SDS011;76245;47.062;15.440;2024-03-02T06:12:41;39.60;;;18.35;;
85799;SDS011;76245;47.062;15.440;2024-03-02T06:15:07;35.33;;;17.75;;
85799;SDS011;76245;47.062;15.440;2024-03-02T06:17:32;36.45;;;17.92;;
85799;SDS011;76245;47.062;15.440;2024-03-02T06:20:00;37.00;;;16.45;;
85799;SDS011;76245;47.062;15.440;2024-03-02T06:22:26;34.50;;;15.85;;
85799;SDS011;76245;47.062;15.440;2024-03-02T06:24:52;38.22;;;18.20;;
85799;SDS011;76245;47.062;15.440;2024-03-02T06:27:17;37.60;;;17.88;;
85799;SDS011;76245;47.062;15.440;2024-03-02T06:29:43;37.03;;;17.67;;
85799;SDS011;76245;47.062;15.440;2024-03-02T06:32:08;38.85;;;19.50;;
85799;SDS011;76245;47.062;15.440;2024-03-02T06:34:34;40.25;;;17.80;;
85799;SDS011;76245;47.062;15.440;2024-03-02T06:36:59;37.80;;;16.65;;
85799;SDS011;76245;47.062;15.440;2024-03-02T06:39:25;38.90;;;17.08;;
85799;SDS011;76245;47.062;15.440;2024-03-02T06:41:51;37.95;;;15.82;;
85799;SDS011;76245;47.062;15.440;2024-03-02T06:44:16;34.53;;;17.15;;
85799;SDS011;76245;47.062;15.440;2024-03-02T06:46:42;34.65;;;17.38;;
85799;SDS011;76245;47.062;15.440;2024-03-02T06:49:07;36.75;;;15.93;;
85799;SDS011;76245;47.062;15.440;2024-03-02T06:51:34;33.47;;;16.05;;
85799;SDS011;76245;47.062;15.440;2024-03-02T06:54:00;36.10;;;17.38;;
85799;SDS011;76245;47.062;15.440;2024-03-02T06:56:25;36.97;;;18.02;;
85799;SDS011;76245;47.062;15.440;2024-03-02T06:58:51;40.72;;;16.55;;
85799;SDS011;76245;47.062;15.440;2024-03-02T07:01:17;37.90;;;18.25;;
85799;SDS011;76245;47.062;15.440;2024-03-02T07:03:42;31.38;;;16.90;;
85799;SDS011;76245;47.062;15.440;2024-03-02T07:06:09;42.67;;;19.38;;
85799;SDS011;76245;47.062;15.440;2024-03-02T07:08:34;40.17;;;19.35;;
85799;SDS011;76245;47.062;15.440;2024-03-02T07:11:00;40.72;;;18.17;;
85799;SDS011;76245;47.062;15.440;2024-03-02T07:13:25;38.17;;;19.00;;
85799;SDS011;76245;47.062;15.440;2024-03-02T07:15:52;38.65;;;18.75;;
85799;SDS011;76245;47.062;15.440;2024-03-02T07:18:29;34.10;;;18.52;;
85799;SDS011;76245;47.062;15.440;2024-03-02T07:21:09;39.67;;;19.25;;
85799;SDS011;76245;47.062;15.440;2024-03-02T07:23:36;41.15;;;18.45;;
85799;SDS011;76245;47.062;15.440;2024-03-02T07:26:01;36.20;;;18.00;;
85799;SDS011;76245;47.062;15.440;2024-03-02T07:28:27;54.58;;;21.05;;
85799;SDS011;76245;47.062;15.440;2024-03-02T07:31:02;31.30;;;16.90;;
85799;SDS011;76245;47.062;15.440;2024-03-02T07:33:29;32.60;;;16.92;;
85799;SDS011;76245;47.062;15.440;2024-03-02T07:35:55;31.40;;;17.45;;
85799;SDS011;76245;47.062;15.440;2024-03-02T07:38:21;32.35;;;17.00;;
85799;SDS011;76245;47.062;15.440;2024-03-02T07:40:50;36.08;;;17.48;;
85799;SDS011;76245;47.062;15.440;2024-03-02T07:43:18;33.97;;;17.67;;
85799;SDS011;76245;47.062;15.440;2024-03-02T07:45:44;36.88;;;19.45;;
85799;SDS011;76245;47.062;15.440;2024-03-02T07:48:10;38.45;;;17.92;;
85799;SDS011;76245;47.062;15.440;2024-03-02T07:50:35;31.40;;;16.88;;
85799;SDS011;76245;47.062;15.440;2024-03-02T07:53:02;33.72;;;17.30;;
85799;SDS011;76245;47.062;15.440;2024-03-02T07:55:28;33.33;;;16.83;;
85799;SDS011;76245;47.062;15.440;2024-03-02T07:57:54;35.80;;;17.40;;
85799;SDS011;76245;47.062;15.440;2024-03-02T08:00:20;32.03;;;16.25;;
85799;SDS011;76245;47.062;15.440;2024-03-02T08:02:46;30.13;;;15.82;;
85799;SDS011;76245;47.062;15.440;2024-03-02T08:05:11;32.38;;;16.60;;
85799;SDS011;76245;47.062;15.440;2024-03-02T08:07:37;31.98;;;16.90;;
85799;SDS011;76245;47.062;15.440;2024-03-02T08:10:02;36.20;;;19.83;;
85799;SDS011;76245;47.062;15.440;2024-03-02T08:12:28;31.45;;;15.38;;
85799;SDS011;76245;47.062;15.440;2024-03-02T08:14:53;31.38;;;17.08;;
85799;SDS011;76245;47.062;15.440;2024-03-02T08:17:19;34.03;;;18.23;;
85799;SDS011;76245;47.062;15.440;2024-03-02T08:19:44;36.83;;;19.27;;
85799;SDS011;76245;47.062;15.440;2024-03-02T08:22:10;32.83;;;17.20;;
85799;SDS011;76245;47.062;15.440;2024-03-02T08:24:35;34.50;;;19.10;;
85799;SDS011;76245;47.062;15.440;2024-03-02T08:27:01;37.28;;;18.48;;
85799;SDS011;76245;47.062;15.440;2024-03-02T08:29:26;34.92;;;18.00;;
85799;SDS011;76245;47.062;15.440;2024-03-02T08:31:52;33.58;;;17.60;;
85799;SDS011;76245;47.062;15.440;2024-03-02T08:34:17;33.03;;;17.67;;
85799;SDS011;76245;47.062;15.440;2024-03-02T08:36:43;32.20;;;18.10;;
85799;SDS011;76245;47.062;15.440;2024-03-02T08:39:08;35.28;;;16.98;;
85799;SDS011;76245;47.062;15.440;2024-03-02T08:41:41;31.88;;;16.55;;
85799;SDS011;76245;47.062;15.440;2024-03-02T08:44:09;32.40;;;17.98;;
85799;SDS011;76245;47.062;15.440;2024-03-02T08:46:35;32.35;;;15.52;;
85799;SDS011;76245;47.062;15.440;2024-03-02T08:49:00;34.00;;;16.35;;
85799;SDS011;76245;47.062;15.440;2024-03-02T08:51:25;31.63;;;17.05;;
85799;SDS011;76245;47.062;15.440;2024-03-02T08:53:51;30.40;;;16.23;;
85799;SDS011;76245;47.062;15.440;2024-03-02T08:56:16;31.42;;;15.65;;
85799;SDS011;76245;47.062;15.440;2024-03-02T08:58:42;33.25;;;16.00;;
85799;SDS011;76245;47.062;15.440;2024-03-02T09:01:08;34.83;;;15.88;;
85799;SDS011;76245;47.062;15.440;2024-03-02T09:03:34;36.65;;;17.42;;
85799;SDS011;76245;47.062;15.440;2024-03-02T09:06:00;33.85;;;16.13;;
85799;SDS011;76245;47.062;15.440;2024-03-02T09:08:26;33.47;;;16.33;;
85799;SDS011;76245;47.062;15.440;2024-03-02T09:10:51;32.88;;;15.55;;
85799;SDS011;76245;47.062;15.440;2024-03-02T09:13:17;33.05;;;15.93;;
85799;SDS011;76245;47.062;15.440;2024-03-02T09:15:42;31.23;;;16.20;;
85799;SDS011;76245;47.062;15.440;2024-03-02T09:18:09;32.20;;;14.95;;
85799;SDS011;76245;47.062;15.440;2024-03-02T09:20:34;31.83;;;15.60;;
85799;SDS011;76245;47.062;15.440;2024-03-02T09:23:00;31.38;;;15.63;;
85799;SDS011;76245;47.062;15.440;2024-03-02T09:25:25;28.30;;;14.77;;
85799;SDS011;76245;47.062;15.440;2024-03-02T09:27:51;29.45;;;15.05;;
85799;SDS011;76245;47.062;15.440;2024-03-02T09:30:16;28.35;;;15.38;;
85799;SDS011;76245;47.062;15.440;2024-03-02T09:32:41;28.75;;;14.95;;
85799;SDS011;76245;47.062;15.440;2024-03-02T09:35:07;29.98;;;14.20;;
85799;SDS011;76245;47.062;15.440;2024-03-02T09:37:34;26.02;;;14.50;;
85799;SDS011;76245;47.062;15.440;2024-03-02T09:39:59;30.55;;;14.23;;
85799;SDS011;76245;47.062;15.440;2024-03-02T09:42:25;26.13;;;13.45;;
85799;SDS011;76245;47.062;15.440;2024-03-02T09:44:51;31.45;;;16.95;;
85799;SDS011;76245;47.062;15.440;2024-03-02T09:47:17;28.35;;;14.40;;
85799;SDS011;76245;47.062;15.440;2024-03-02T09:49:42;31.20;;;15.00;;
85799;SDS011;76245;47.062;15.440;2024-03-02T09:52:08;32.65;;;14.57;;
85799;SDS011;76245;47.062;15.440;2024-03-02T09:54:35;24.35;;;14.68;;
85799;SDS011;76245;47.062;15.440;2024-03-02T09:57:01;28.02;;;15.10;;
85799;SDS011;76245;47.062;15.440;2024-03-02T09:59:27;28.02;;;14.43;;
85799;SDS011;76245;47.062;15.440;2024-03-02T10:04:26;26.70;;;13.60;;
85799;SDS011;76245;47.062;15.440;2024-03-02T10:06:51;27.45;;;14.05;;
85799;SDS011;76245;47.062;15.440;2024-03-02T10:09:27;25.80;;;14.13;;
85799;SDS011;76245;47.062;15.440;2024-03-02T10:12:03;26.23;;;14.10;;
85799;SDS011;76245;47.062;15.440;2024-03-02T10:14:36;24.95;;;13.23;;
85799;SDS011;76245;47.062;15.440;2024-03-02T10:17:05;27.80;;;13.65;;
85799;SDS011;76245;47.062;15.440;2024-03-02T10:19:32;22.98;;;13.70;;
85799;SDS011;76245;47.062;15.440;2024-03-02T10:21:58;25.20;;;12.45;;
85799;SDS011;76245;47.062;15.440;2024-03-02T10:24:24;23.25;;;13.82;;
85799;SDS011;76245;47.062;15.440;2024-03-02T10:26:50;27.63;;;14.07;;
85799;SDS011;76245;47.062;15.440;2024-03-02T10:29:16;25.48;;;12.52;;
85799;SDS011;76245;47.062;15.440;2024-03-02T10:31:43;25.95;;;13.93;;
85799;SDS011;76245;47.062;15.440;2024-03-02T10:34:09;23.25;;;12.43;;
85799;SDS011;76245;47.062;15.440;2024-03-02T10:36:36;27.42;;;12.65;;
85799;SDS011;76245;47.062;15.440;2024-03-02T10:39:05;25.27;;;13.73;;
85799;SDS011;76245;47.062;15.440;2024-03-02T10:41:34;29.15;;;12.95;;
85799;SDS011;76245;47.062;15.440;2024-03-02T10:44:08;27.23;;;13.48;;
85799;SDS011;76245;47.062;15.440;2024-03-02T10:46:34;25.83;;;13.10;;
85799;SDS011;76245;47.062;15.440;2024-03-02T10:49:01;23.15;;;12.35;;
85799;SDS011;76245;47.062;15.440;2024-03-02T10:51:29;23.10;;;12.85;;
85799;SDS011;76245;47.062;15.440;2024-03-02T10:53:59;22.95;;;12.50;;
85799;SDS011;76245;47.062;15.440;2024-03-02T10:56:30;18.30;;;10.73;;
85799;SDS011;76245;47.062;15.440;2024-03-02T11:01:31;22.42;;;11.18;;
85799;SDS011;76245;47.062;15.440;2024-03-02T11:03:58;20.13;;;11.07;;
85799;SDS011;76245;47.062;15.440;2024-03-02T11:06:24;17.02;;;9.98;;
85799;SDS011;76245;47.062;15.440;2024-03-02T11:08:52;20.02;;;9.60;;
85799;SDS011;76245;47.062;15.440;2024-03-02T11:11:21;19.17;;;11.07;;
85799;SDS011;76245;47.062;15.440;2024-03-02T11:13:49;20.98;;;10.18;;
85799;SDS011;76245;47.062;15.440;2024-03-02T11:16:37;17.48;;;9.73;;
85799;SDS011;76245;47.062;15.440;2024-03-02T11:21:31;17.15;;;9.07;;
85799;SDS011;76245;47.062;15.440;2024-03-02T11:23:58;15.38;;;9.38;;
85799;SDS011;76245;47.062;15.440;2024-03-02T11:26:24;17.75;;;9.18;;
85799;SDS011;76245;47.062;15.440;2024-03-02T11:28:49;17.08;;;9.88;;
85799;SDS011;76245;47.062;15.440;2024-03-02T11:31:15;19.92;;;9.30;;
85799;SDS011;76245;47.062;15.440;2024-03-02T11:33:40;18.95;;;9.50;;
85799;SDS011;76245;47.062;15.440;2024-03-02T11:36:06;15.02;;;9.55;;
85799;SDS011;76245;47.062;15.440;2024-03-02T11:38:33;14.80;;;9.50;;
85799;SDS011;76245;47.062;15.440;2024-03-02T11:40:59;15.48;;;9.82;;
85799;SDS011;76245;47.062;15.440;2024-03-02T11:43:27;14.98;;;8.95;;
85799;SDS011;76245;47.062;15.440;2024-03-02T11:45:57;17.90;;;9.75;;
85799;SDS011;76245;47.062;15.440;2024-03-02T11:48:26;18.65;;;10.85;;
85799;SDS011;76245;47.062;15.440;2024-03-02T11:50:52;16.60;;;8.82;;
85799;SDS011;76245;47.062;15.440;2024-03-02T11:53:18;15.30;;;9.00;;
85799;SDS011;76245;47.062;15.440;2024-03-02T11:55:45;16.67;;;8.95;;
85799;SDS011;76245;47.062;15.440;2024-03-02T11:58:11;19.23;;;9.80;;
85799;SDS011;76245;47.062;15.440;2024-03-02T12:00:37;13.48;;;8.13;;
85799;SDS011;76245;47.062;15.440;2024-03-02T12:03:04;11.82;;;7.55;;
85799;SDS011;76245;47.062;15.440;2024-03-02T12:05:31;11.20;;;5.90;;
85799;SDS011;76245;47.062;15.440;2024-03-02T12:08:06;10.35;;;6.53;;
85799;SDS011;76245;47.062;15.440;2024-03-02T12:10:32;11.82;;;7.93;;
85799;SDS011;76245;47.062;15.440;2024-03-02T12:12:59;15.00;;;7.55;;
85799;SDS011;76245;47.062;15.440;2024-03-02T12:15:35;13.07;;;6.30;;
85799;SDS011;76245;47.062;15.440;2024-03-02T12:18:04;12.73;;;7.28;;
85799;SDS011;76245;47.062;15.440;2024-03-02T12:20:30;14.38;;;8.15;;
85799;SDS011;76245;47.062;15.440;2024-03-02T12:22:58;12.63;;;7.13;;
85799;SDS011;76245;47.062;15.440;2024-03-02T12:25:24;14.02;;;7.80;;
85799;SDS011;76245;47.062;15.440;2024-03-02T12:27:51;11.00;;;7.35;;
85799;SDS011;76245;47.062;15.440;2024-03-02T12:30:18;12.88;;;6.88;;
85799;SDS011;76245;47.062;15.440;2024-03-02T12:32:44;14.43;;;6.43;;
85799;SDS011;76245;47.062;15.440;2024-03-02T12:35:10;10.05;;;6.28;;
85799;SDS011;76245;47.062;15.440;2024-03-02T12:37:45;13.88;;;6.63;;
85799;SDS011;76245;47.062;15.440;2024-03-02T12:40:12;10.88;;;6.70;;
85799;SDS011;76245;47.062;15.440;2024-03-02T12:42:39;13.95;;;5.50;;
85799;SDS011;76245;47.062;15.440;2024-03-02T12:45:08;11.90;;;6.00;;
85799;SDS011;76245;47.062;15.440;2024-03-02T12:47:36;11.93;;;6.63;;
85799;SDS011;76245;47.062;15.440;2024-03-02T12:50:05;9.50;;;6.75;;
85799;SDS011;76245;47.062;15.440;2024-03-02T12:52:31;12.18;;;6.35;;
85799;SDS011;76245;47.062;15.440;2024-03-02T12:55:00;9.82;;;5.22;;
85799;SDS011;76245;47.062;15.440;2024-03-02T12:57:28;10.57;;;6.18;;
85799;SDS011;76245;47.062;15.440;2024-03-02T13:00:02;9.80;;;6.10;;
85799;SDS011;76245;47.062;15.440;2024-03-02T13:02:35;10.23;;;5.55;;
85799;SDS011;76245;47.062;15.440;2024-03-02T13:05:01;9.55;;;5.28;;
85799;SDS011;76245;47.062;15.440;2024-03-02T13:07:27;10.85;;;5.93;;
85799;SDS011;76245;47.062;15.440;2024-03-02T13:09:53;10.13;;;5.07;;
85799;SDS011;76245;47.062;15.440;2024-03-02T13:12:21;9.18;;;5.20;;
85799;SDS011;76245;47.062;15.440;2024-03-02T13:14:53;7.97;;;5.57;;
85799;SDS011;76245;47.062;15.440;2024-03-02T13:17:19;8.32;;;5.15;;
85799;SDS011;76245;47.062;15.440;2024-03-02T13:19:57;9.25;;;5.55;;
85799;SDS011;76245;47.062;15.440;2024-03-02T13:22:26;8.88;;;5.32;;
85799;SDS011;76245;47.062;15.440;2024-03-02T13:24:52;9.05;;;5.13;;
85799;SDS011;76245;47.062;15.440;2024-03-02T13:27:21;13.30;;;5.47;;
85799;SDS011;76245;47.062;15.440;2024-03-02T13:29:47;11.30;;;5.50;;
85799;SDS011;76245;47.062;15.440;2024-03-02T13:32:16;10.27;;;5.00;;
85799;SDS011;76245;47.062;15.440;2024-03-02T13:34:42;9.38;;;5.72;;
85799;SDS011;76245;47.062;15.440;2024-03-02T13:37:07;6.68;;;5.20;;
85799;SDS011;76245;47.062;15.440;2024-03-02T13:39:33;10.75;;;4.82;;
85799;SDS011;76245;47.062;15.440;2024-03-02T13:42:05;8.40;;;5.32;;
85799;SDS011;76245;47.062;15.440;2024-03-02T13:44:33;9.95;;;5.32;;
85799;SDS011;76245;47.062;15.440;2024-03-02T13:46:59;10.45;;;5.50;;
85799;SDS011;76245;47.062;15.440;2024-03-02T13:49:25;9.23;;;4.57;;
85799;SDS011;76245;47.062;15.440;2024-03-02T13:51:58;8.02;;;4.53;;
85799;SDS011;76245;47.062;15.440;2024-03-02T13:54:38;9.23;;;5.10;;
85799;SDS011;76245;47.062;15.440;2024-03-02T13:57:07;10.38;;;5.63;;
85799;SDS011;76245;47.062;15.440;2024-03-02T13:59:33;9.40;;;4.85;;
85799;SDS011;76245;47.062;15.440;2024-03-02T14:02:02;9.15;;;5.50;;
85799;SDS011;76245;47.062;15.440;2024-03-02T14:04:32;10.40;;;5.55;;
85799;SDS011;76245;47.062;15.440;2024-03-02T14:06:58;9.18;;;5.65;;
85799;SDS011;76245;47.062;15.440;2024-03-02T14:09:24;9.02;;;5.07;;
85799;SDS011;76245;47.062;15.440;2024-03-02T14:11:50;8.15;;;5.57;;
85799;SDS011;76245;47.062;15.440;2024-03-02T14:14:17;10.30;;;5.50;;
85799;SDS011;76245;47.062;15.440;2024-03-02T14:16:42;12.52;;;6.22;;
85799;SDS011;76245;47.062;15.440;2024-03-02T14:19:10;9.50;;;4.80;;
85799;SDS011;76245;47.062;15.440;2024-03-02T14:24:02;10.02;;;5.78;;
85799;SDS011;76245;47.062;15.440;2024-03-02T14:26:27;14.27;;;5.90;;
85799;SDS011;76245;47.062;15.440;2024-03-02T14:28:53;8.75;;;6.43;;
85799;SDS011;76245;47.062;15.440;2024-03-02T14:31:20;10.60;;;6.32;;